This is the latest recevied weather packets stored in our database for station/object M9XDX-WX. If no packets are shown the sender has not sent any weather packets the latest 10 day(s).
| Time | Temp. | Humidity | Pressure | Rain* | Wind** | Luminosity | Snow |
|---|---|---|---|---|---|---|---|
| 1777818003 | 19.44° C | 57% | 1008.2 hPa | 0 mm | - | 495 W/m² | - |
| 1777817403 | 18.89° C | 58% | 1008 hPa | 0 mm | - | 587 W/m² | - |
| 1777815140 | 18.89° C | 60% | 1008.2 hPa | 0 mm | - | 802 W/m² | - |
| 1777813337 | 18.33° C | 62% | 1008.3 hPa | 0 mm | - | 910 W/m² | - |
| 1777811403 | 18.33° C | 61% | 1008.6 hPa | 0 mm | - | 565 W/m² | - |
| 1777810803 | 18.33° C | 61% | 1008.6 hPa | 0 mm | - | 653 W/m² | - |
| 1777806603 | 17.22° C | 65% | 1008.8 hPa | 0 mm | - | 1068 W/m² | - |
| 1777804803 | 16.67° C | 68% | 1009 hPa | 0 mm | - | 868 W/m² | - |
| 1777802539 | 16.11° C | 71% | 1008.7 hPa | 0 mm | - | 761 W/m² | - |
| 1777800603 | 15° C | 77% | 1009.1 hPa | 0 mm | - | 292 W/m² | - |
| 1777795939 | 12.78° C | 86% | 1009.1 hPa | 0 mm | - | 304 W/m² | - |
| 1777795203 | 12.22° C | 89% | 1009 hPa | 0 mm | - | 264 W/m² | - |
| 1777794003 | 13.33° C | 88% | 1008.6 hPa | 0 mm | - | 198 W/m² | - |
| 1777771203 | 10.56° C | 96% | 1009.1 hPa | 0 mm | - | 0 W/m² | - |
| 1777767140 | 10.56° C | 96% | 1009.1 hPa | 0 mm | - | 0 W/m² | - |
| 1777764139 | 11.11° C | 96% | 1009.3 hPa | 0 mm | - | 0 W/m² | - |
| 1777761003 | 11.11° C | 95% | 1009.8 hPa | 0 mm | - | 0 W/m² | - |
| 1777757403 | 11.11° C | 95% | 1009.8 hPa | 0 mm | - | 0 W/m² | - |
| 1777754403 | 11.11° C | 95% | 1010.2 hPa | 1.27 mm | - | 0 W/m² | - |
| 1777744203 | 12.78° C | 93% | 1010.6 hPa | 5.59 mm | - | 11 W/m² | - |
| 1777743137 | 12.78° C | 92% | 1010.4 hPa | 2.79 mm | - | 6 W/m² | - |
| 1777735803 | 15.56° C | 75% | 1012.2 hPa | 1.78 mm | - | 41 W/m² | - |
| 1777729203 | 17.22° C | 59% | 1013 hPa | 0 mm | - | 201 W/m² | - |
| 1777725739 | 16.11° C | 66% | 1013.6 hPa | 0 mm | - | 365 W/m² | - |
| 1777725003 | 16.67° C | 66% | 1014.1 hPa | 0 mm | - | 363 W/m² | - |
* Rain latest hour (hover to see other rain measurements)
** Current wind speed in m/s (hover to see current wind gust speed)